createdAt,value
2023-03-02T00:02:18.470Z,3.08
2023-03-02T00:04:53.587Z,2.62
2023-03-02T00:07:31.830Z,2.35
2023-03-02T00:10:00.765Z,2.98
2023-03-02T00:12:30.604Z,2.62
2023-03-02T00:14:59.349Z,2.70
2023-03-02T00:17:28.415Z,3.12
2023-03-02T00:20:02.795Z,2.72
2023-03-02T00:22:32.904Z,2.65
2023-03-02T00:25:03.405Z,2.67
2023-03-02T00:27:33.504Z,3.72
2023-03-02T00:30:02.995Z,3.55
2023-03-02T00:32:34.024Z,3.33
2023-03-02T00:35:04.363Z,3.08
2023-03-02T00:37:36.449Z,3.20
2023-03-02T00:40:11.376Z,3.00
2023-03-02T00:42:40.283Z,3.40
2023-03-02T00:45:10.530Z,3.05
2023-03-02T00:47:41.507Z,2.90
2023-03-02T00:50:11.606Z,2.27
2023-03-02T00:52:42.711Z,2.37
2023-03-02T00:55:11.625Z,2.90
2023-03-02T00:57:41.025Z,2.70
2023-03-02T01:00:13.334Z,3.02
2023-03-02T01:02:43.945Z,2.55
2023-03-02T01:05:16.577Z,2.65
2023-03-02T01:07:47.636Z,2.95
2023-03-02T01:10:16.443Z,2.90
2023-03-02T01:12:46.624Z,3.15
2023-03-02T01:15:16.586Z,2.72
2023-03-02T01:17:46.578Z,2.80
2023-03-02T01:20:18.324Z,2.77
2023-03-02T01:22:49.596Z,3.00
2023-03-02T01:25:19.213Z,2.85
2023-03-02T01:27:48.403Z,2.83
2023-03-02T01:30:17.429Z,2.80
2023-03-02T01:32:47.916Z,2.90
2023-03-02T01:35:16.536Z,2.60
2023-03-02T01:37:45.525Z,2.45
2023-03-02T01:40:14.975Z,2.45
2023-03-02T01:42:54.610Z,3.02
2023-03-02T01:45:48.320Z,2.65
2023-03-02T01:48:47.978Z,2.75
2023-03-02T01:51:22.188Z,2.80
2023-03-02T01:53:55.626Z,2.77
2023-03-02T01:56:31.534Z,3.00
2023-03-02T01:59:08.128Z,2.10
2023-03-02T02:01:40.368Z,2.62
2023-03-02T02:04:09.106Z,2.60
2023-03-02T02:06:50.786Z,2.45
2023-03-02T02:09:22.750Z,2.75
2023-03-02T02:11:52.325Z,2.80
2023-03-02T02:14:21.685Z,2.40
2023-03-02T02:16:51.067Z,2.50
2023-03-02T02:20:08.110Z,2.50
2023-03-02T02:23:06.885Z,2.40
2023-03-02T02:25:56.719Z,3.00
2023-03-02T02:28:40.001Z,3.42
2023-03-02T02:31:27.163Z,2.92
2023-03-02T02:34:01.441Z,2.70
2023-03-02T02:36:35.681Z,3.10
2023-03-02T02:39:08.589Z,2.60
2023-03-02T02:41:39.412Z,2.87
2023-03-02T02:44:16.733Z,2.42
2023-03-02T02:46:45.568Z,2.50
2023-03-02T02:49:36.418Z,2.70
2023-03-02T02:52:06.413Z,2.47
2023-03-02T02:54:35.289Z,2.50
2023-03-02T02:57:04.823Z,2.33
2023-03-02T02:59:39.856Z,2.70
2023-03-02T03:02:23.816Z,3.00
2023-03-02T03:04:54.788Z,2.98
2023-03-02T03:07:25.136Z,2.95
2023-03-02T03:10:28.743Z,2.95
2023-03-02T03:12:59.448Z,3.00
2023-03-02T03:15:30.478Z,3.00
2023-03-02T03:17:59.329Z,3.42
2023-03-02T03:20:29.155Z,3.17
2023-03-02T03:23:00.111Z,3.50
2023-03-02T03:25:29.338Z,3.30
2023-03-02T03:27:58.494Z,3.65
2023-03-02T03:30:29.664Z,3.08
2023-03-02T03:32:59.033Z,3.27
2023-03-02T03:35:28.876Z,3.30
2023-03-02T03:37:59.411Z,3.72
2023-03-02T03:40:28.838Z,3.22
2023-03-02T03:42:58.153Z,3.20
2023-03-02T03:45:29.405Z,3.70
2023-03-02T03:47:58.575Z,3.58
2023-03-02T03:50:27.339Z,3.17
2023-03-02T03:52:56.750Z,4.08
2023-03-02T03:55:29.177Z,3.50
2023-03-02T03:57:58.402Z,3.75
2023-03-02T04:00:27.796Z,4.05
2023-03-02T04:02:58.627Z,3.72
2023-03-02T04:05:31.654Z,3.65
2023-03-02T04:08:02.518Z,3.62
2023-03-02T04:10:33.250Z,4.58
2023-03-02T04:13:04.623Z,4.45
2023-03-02T04:15:34.712Z,5.60
2023-03-02T04:18:04.334Z,5.78
2023-03-02T04:20:35.732Z,5.00
2023-03-02T04:23:04.621Z,5.45
2023-03-02T04:25:34.637Z,4.67
2023-03-02T04:28:06.228Z,4.75
2023-03-02T04:30:37.071Z,5.22
2023-03-02T04:33:06.136Z,4.92
2023-03-02T04:35:36.287Z,5.15
2023-03-02T04:38:06.448Z,4.40
2023-03-02T04:40:36.038Z,4.28
2023-03-02T04:43:06.832Z,4.22
2023-03-02T04:45:37.331Z,4.50
2023-03-02T04:48:06.976Z,4.95
2023-03-02T04:50:35.782Z,4.28
2023-03-02T04:53:04.497Z,5.85
2023-03-02T04:55:33.458Z,4.50
2023-03-02T04:58:02.223Z,5.00
2023-03-02T05:00:33.678Z,4.00
2023-03-02T05:03:03.869Z,5.20
2023-03-02T05:05:32.781Z,4.10
2023-03-02T05:08:02.462Z,4.28
2023-03-02T05:10:32.774Z,4.28
2023-03-02T05:13:05.839Z,5.00
2023-03-02T05:15:39.910Z,4.05
2023-03-02T05:18:10.277Z,4.10
2023-03-02T05:20:40.374Z,3.77
2023-03-02T05:23:11.912Z,3.95
2023-03-02T05:25:41.071Z,4.45
2023-03-02T05:28:11.320Z,3.95
2023-03-02T05:30:42.093Z,4.20
2023-03-02T05:33:11.026Z,4.20
2023-03-02T05:35:40.197Z,3.67
2023-03-02T05:38:11.488Z,4.00
2023-03-02T05:40:44.831Z,4.10
2023-03-02T05:43:18.081Z,4.25
2023-03-02T05:45:47.153Z,3.72
2023-03-02T05:48:16.131Z,4.05
2023-03-02T05:50:46.069Z,4.67
2023-03-02T05:53:16.115Z,4.53
2023-03-02T05:55:44.712Z,4.00
2023-03-02T05:58:16.978Z,5.17
2023-03-02T06:00:47.625Z,4.62
2023-03-02T06:03:16.613Z,4.15
2023-03-02T06:05:47.537Z,5.20
2023-03-02T06:08:19.050Z,4.97
2023-03-02T06:10:50.743Z,5.03
2023-03-02T06:13:19.781Z,4.40
2023-03-02T06:15:52.397Z,4.15
2023-03-02T06:18:22.550Z,5.05
2023-03-02T06:20:51.872Z,4.67
2023-03-02T06:23:20.914Z,4.15
2023-03-02T06:25:50.169Z,4.17
2023-03-02T06:28:20.198Z,4.70
2023-03-02T06:30:49.547Z,4.60
2023-03-02T06:33:21.196Z,4.30
2023-03-02T06:35:50.495Z,4.47
2023-03-02T06:38:19.475Z,5.20
2023-03-02T06:40:48.841Z,4.95
2023-03-02T06:43:17.613Z,5.20
2023-03-02T06:45:47.283Z,4.65
2023-03-02T06:48:16.110Z,5.47
2023-03-02T06:50:46.569Z,5.00
2023-03-02T06:53:18.556Z,4.50
2023-03-02T06:55:51.214Z,4.03
2023-03-02T06:58:20.608Z,4.60
2023-03-02T07:00:49.670Z,4.40
2023-03-02T07:03:18.641Z,3.70
2023-03-02T07:05:50.242Z,4.40
2023-03-02T07:08:20.652Z,4.58
2023-03-02T07:10:49.601Z,4.85
2023-03-02T07:13:18.463Z,4.40
2023-03-02T07:15:47.702Z,5.00
2023-03-02T07:18:18.996Z,4.33
2023-03-02T07:20:47.764Z,4.10
2023-03-02T07:23:18.286Z,4.67
2023-03-02T07:25:47.105Z,4.10
2023-03-02T07:28:16.837Z,4.25
2023-03-02T07:30:46.782Z,4.25
2023-03-02T07:33:19.733Z,4.15
2023-03-02T07:35:50.193Z,4.28
2023-03-02T07:38:19.408Z,5.45
2023-03-02T07:40:48.272Z,4.53
2023-03-02T07:43:18.962Z,3.98
2023-03-02T07:45:49.161Z,4.15
2023-03-02T07:48:20.005Z,4.28
2023-03-02T07:50:51.908Z,4.00
2023-03-02T07:53:21.073Z,3.95
2023-03-02T07:55:52.943Z,4.28
2023-03-02T07:58:24.064Z,4.45
2023-03-02T08:00:53.157Z,5.12
2023-03-02T08:03:21.906Z,4.10
2023-03-02T08:05:52.559Z,4.15
2023-03-02T08:08:21.800Z,3.92
2023-03-02T08:10:50.652Z,3.58
2023-03-02T08:13:19.384Z,4.15
2023-03-02T08:15:49.905Z,3.42
2023-03-02T08:18:19.078Z,3.95
2023-03-02T08:20:47.841Z,3.62
2023-03-02T08:23:16.557Z,4.30
2023-03-02T08:25:45.378Z,3.83
2023-03-02T08:28:14.722Z,3.60
2023-03-02T08:30:43.539Z,4.17
2023-03-02T08:33:12.758Z,3.85
2023-03-02T08:35:41.794Z,3.80
2023-03-02T08:38:10.745Z,3.80
2023-03-02T08:40:40.836Z,4.35
2023-03-02T08:43:11.452Z,4.60
2023-03-02T08:45:42.502Z,4.20
2023-03-02T08:48:13.036Z,4.85
2023-03-02T08:50:42.205Z,4.65
2023-03-02T08:53:14.411Z,4.05
2023-03-02T08:55:44.209Z,4.80
2023-03-02T08:58:13.444Z,3.87
2023-03-02T09:00:42.937Z,4.12
2023-03-02T09:03:12.230Z,4.30
2023-03-02T09:05:41.471Z,4.97
2023-03-02T09:08:11.295Z,3.70
2023-03-02T09:10:39.958Z,3.60
2023-03-02T09:13:08.838Z,3.20
2023-03-02T09:15:37.859Z,3.47
2023-03-02T09:18:08.214Z,3.20
2023-03-02T09:20:39.274Z,3.15
2023-03-02T09:23:08.108Z,3.17
2023-03-02T09:25:37.098Z,3.35
2023-03-02T09:28:06.300Z,3.60
2023-03-02T09:30:37.934Z,5.30
2023-03-02T09:33:08.509Z,3.65
2023-03-02T09:35:39.092Z,3.92
2023-03-02T09:38:07.850Z,3.15
2023-03-02T09:40:36.881Z,2.85
2023-03-02T09:43:34.779Z,2.92
2023-03-02T09:46:45.618Z,2.98
2023-03-02T09:49:40.876Z,3.40
2023-03-02T09:52:30.175Z,3.17
2023-03-02T09:55:15.091Z,3.40
2023-03-02T09:57:46.766Z,3.40
2023-03-02T10:00:21.005Z,3.70
2023-03-02T10:02:55.413Z,2.98
2023-03-02T10:05:39.322Z,2.85
2023-03-02T10:08:18.147Z,2.52
2023-03-02T10:11:09.771Z,2.90
2023-03-02T10:14:05.671Z,3.05
2023-03-02T10:16:49.829Z,2.50
2023-03-02T10:19:41.224Z,3.35
2023-03-02T10:22:30.121Z,2.58
2023-03-02T10:25:16.093Z,2.70
2023-03-02T10:27:50.122Z,3.20
2023-03-02T10:30:36.715Z,3.12
2023-03-02T10:33:17.949Z,4.20
2023-03-02T10:35:52.026Z,3.50
2023-03-02T10:38:24.359Z,3.33
2023-03-02T10:41:03.294Z,3.20
2023-03-02T10:43:49.468Z,3.05
2023-03-02T10:46:18.406Z,3.22
2023-03-02T10:48:59.226Z,2.98
2023-03-02T10:51:31.126Z,3.45
2023-03-02T10:54:14.608Z,3.20
2023-03-02T10:56:51.684Z,2.92
2023-03-02T10:59:45.114Z,2.87
2023-03-02T11:02:23.144Z,3.47
2023-03-02T11:05:17.751Z,3.20
2023-03-02T11:07:59.574Z,2.92
2023-03-02T11:10:33.865Z,2.87
2023-03-02T11:13:03.065Z,4.70
2023-03-02T11:15:43.208Z,3.30
2023-03-02T11:18:49.224Z,3.65
2023-03-02T11:21:35.918Z,3.70
2023-03-02T11:24:18.988Z,4.28
2023-03-02T11:26:52.587Z,4.08
2023-03-02T11:29:57.331Z,3.60
2023-03-02T11:32:51.460Z,3.65
2023-03-02T11:35:39.178Z,3.67
2023-03-02T11:38:30.068Z,3.70
2023-03-02T11:41:04.736Z,3.67
2023-03-02T11:43:33.471Z,3.45
2023-03-02T11:46:13.921Z,3.80
2023-03-02T11:48:41.814Z,4.00
2023-03-02T11:51:13.547Z,3.62
2023-03-02T11:53:50.136Z,3.50
2023-03-02T11:56:18.959Z,4.15
2023-03-02T11:58:51.864Z,3.50
2023-03-02T12:01:23.904Z,3.85
2023-03-02T12:03:52.862Z,3.87
2023-03-02T12:06:26.618Z,4.10
2023-03-02T12:09:28.588Z,3.40
2023-03-02T12:12:20.998Z,3.33
2023-03-02T12:14:52.098Z,4.15
2023-03-02T12:17:30.531Z,4.20
2023-03-02T12:20:26.258Z,3.55
2023-03-02T12:23:07.060Z,3.37
2023-03-02T12:25:44.416Z,3.10
2023-03-02T12:28:31.471Z,3.42
2023-03-02T12:31:13.625Z,3.25
2023-03-02T12:33:47.535Z,3.35
2023-03-02T12:36:31.025Z,3.58
2023-03-02T12:39:11.672Z,3.62
2023-03-02T12:42:07.314Z,3.98
2023-03-02T12:44:50.760Z,3.70
2023-03-02T12:47:25.936Z,3.92
2023-03-02T12:50:01.205Z,4.42
2023-03-02T12:52:32.839Z,3.83
2023-03-02T12:55:10.196Z,4.20
2023-03-02T12:57:59.795Z,4.10
2023-03-02T13:00:32.558Z,3.85
2023-03-02T13:03:05.433Z,4.00
2023-03-02T13:05:35.756Z,4.05
2023-03-02T13:08:22.796Z,4.08
2023-03-02T13:11:03.040Z,3.52
2023-03-02T13:13:38.505Z,4.60
2023-03-02T13:16:23.014Z,4.20
2023-03-02T13:18:56.532Z,3.92
2023-03-02T13:21:38.626Z,4.05
2023-03-02T13:24:35.744Z,3.58
2023-03-02T13:27:08.115Z,3.45
2023-03-02T13:29:37.512Z,3.50
2023-03-02T13:32:28.064Z,3.40
2023-03-02T13:34:59.124Z,3.45
2023-03-02T13:37:44.717Z,3.30
2023-03-02T13:40:31.553Z,3.20
2023-03-02T13:43:00.374Z,3.15
2023-03-02T13:45:30.565Z,3.10
2023-03-02T13:48:01.005Z,2.42
2023-03-02T13:50:31.656Z,2.60
2023-03-02T13:53:04.918Z,2.92
2023-03-02T13:55:34.419Z,2.83
2023-03-02T13:58:04.570Z,2.58
2023-03-02T14:00:34.898Z,2.50
2023-03-02T14:03:03.802Z,2.80
2023-03-02T14:05:34.734Z,3.47
2023-03-02T14:08:07.011Z,5.45
2023-03-02T14:10:36.424Z,3.83
2023-03-02T14:13:10.157Z,4.65
2023-03-02T14:15:48.957Z,4.40
2023-03-02T14:18:41.847Z,6.35
2023-03-02T14:21:13.978Z,2.62
2023-03-02T14:23:42.868Z,1.98
2023-03-02T14:26:39.446Z,2.35
2023-03-02T14:29:33.075Z,2.22
2023-03-02T14:32:09.079Z,4.90
2023-03-02T14:34:43.365Z,3.37
2023-03-02T14:37:17.704Z,2.92
2023-03-02T14:39:55.510Z,2.75
2023-03-02T14:42:24.573Z,2.50
2023-03-02T14:44:53.635Z,3.00
2023-03-02T14:47:23.957Z,2.70
2023-03-02T14:49:53.328Z,2.52
2023-03-02T14:52:36.122Z,2.55
2023-03-02T14:55:27.762Z,1.98
2023-03-02T14:57:59.810Z,2.10
2023-03-02T15:00:28.334Z,2.08
2023-03-02T15:02:57.203Z,1.82
2023-03-02T15:05:26.195Z,1.82
2023-03-02T15:07:58.782Z,2.40
2023-03-02T15:10:27.909Z,2.27
2023-03-02T15:12:56.961Z,2.42
2023-03-02T15:15:26.936Z,2.85
2023-03-02T15:17:55.571Z,2.45
2023-03-02T15:20:25.833Z,2.52
2023-03-02T15:22:54.969Z,2.77
2023-03-02T15:25:25.482Z,2.35
2023-03-02T15:27:55.841Z,2.33
2023-03-02T15:30:26.867Z,3.30
2023-03-02T15:32:59.320Z,2.77
2023-03-02T15:35:30.129Z,2.87
2023-03-02T15:38:02.246Z,3.22
2023-03-02T15:40:31.633Z,2.55
2023-03-02T15:43:02.745Z,3.33
2023-03-02T15:45:31.851Z,3.30
2023-03-02T15:48:00.819Z,2.77
2023-03-02T15:50:31.170Z,4.97
2023-03-02T15:53:00.474Z,5.00
2023-03-02T15:55:29.067Z,3.40
2023-03-02T15:57:59.793Z,3.77
2023-03-02T16:00:35.169Z,4.70
2023-03-02T16:03:10.373Z,3.67
2023-03-02T16:05:39.505Z,3.30
2023-03-02T16:08:09.193Z,3.80
2023-03-02T16:10:41.805Z,3.40
2023-03-02T16:13:12.828Z,3.42
2023-03-02T16:15:41.827Z,3.70
2023-03-02T16:18:11.200Z,4.85
2023-03-02T16:20:43.135Z,4.10
2023-03-02T16:23:13.016Z,4.40
2023-03-02T16:25:44.418Z,5.22
2023-03-02T16:28:14.057Z,5.10
2023-03-02T16:30:44.567Z,4.25
2023-03-02T16:33:17.009Z,4.55
2023-03-02T16:35:49.250Z,4.92
2023-03-02T16:38:18.335Z,5.40
2023-03-02T16:40:48.996Z,4.90
2023-03-02T16:43:18.780Z,4.97
2023-03-02T16:45:49.747Z,5.83
2023-03-02T16:48:19.503Z,6.37
2023-03-02T16:50:55.901Z,6.00
2023-03-02T16:53:24.914Z,6.50
2023-03-02T16:55:54.212Z,6.40
2023-03-02T16:58:24.176Z,6.55
2023-03-02T17:00:53.498Z,6.15
2023-03-02T17:03:22.610Z,7.53
2023-03-02T17:05:55.089Z,6.78
2023-03-02T17:08:24.800Z,6.53
2023-03-02T17:10:54.642Z,6.03
2023-03-02T17:13:24.944Z,6.05
2023-03-02T17:15:55.156Z,5.60
2023-03-02T17:18:27.494Z,5.83
2023-03-02T17:20:57.708Z,5.45
2023-03-02T17:23:28.398Z,6.45
2023-03-02T17:25:57.388Z,6.90
2023-03-02T17:28:26.209Z,6.75
2023-03-02T17:30:55.979Z,6.40
2023-03-02T17:33:27.221Z,6.30
2023-03-02T17:35:58.410Z,7.05
2023-03-02T17:38:28.285Z,6.37
2023-03-02T17:41:03.251Z,6.45
2023-03-02T17:43:35.412Z,6.12
2023-03-02T17:46:13.844Z,7.00
2023-03-02T17:48:43.540Z,6.55
2023-03-02T17:51:14.078Z,6.45
2023-03-02T17:53:46.957Z,7.22
2023-03-02T17:56:22.407Z,7.50
2023-03-02T17:58:59.963Z,7.47
2023-03-02T18:01:29.374Z,6.50
2023-03-02T18:04:00.016Z,7.22
2023-03-02T18:06:29.221Z,7.35
2023-03-02T18:08:58.725Z,6.67
2023-03-02T18:11:27.397Z,7.15
2023-03-02T18:13:58.260Z,7.40
2023-03-02T18:16:28.891Z,7.17
2023-03-02T18:18:58.347Z,7.53
2023-03-02T18:21:27.689Z,7.08
2023-03-02T18:23:58.031Z,5.90
2023-03-02T18:26:28.576Z,5.65
2023-03-02T18:28:59.090Z,5.90
2023-03-02T18:31:28.456Z,5.78
2023-03-02T18:33:59.134Z,6.05
2023-03-02T18:36:27.847Z,5.60
2023-03-02T18:38:58.311Z,6.17
2023-03-02T18:41:30.174Z,5.55
2023-03-02T18:44:00.788Z,5.62
2023-03-02T18:46:30.868Z,5.60
2023-03-02T18:49:00.824Z,5.42
2023-03-02T18:51:29.934Z,5.58
2023-03-02T18:53:59.693Z,5.05
2023-03-02T18:56:29.085Z,4.97
2023-03-02T18:58:59.073Z,5.40
2023-03-02T19:01:31.559Z,5.28
2023-03-02T19:04:02.008Z,4.72
2023-03-02T19:06:32.561Z,3.98
2023-03-02T19:09:02.114Z,4.95
2023-03-02T19:11:31.666Z,5.53
2023-03-02T19:14:00.446Z,4.45
2023-03-02T19:16:30.760Z,4.83
2023-03-02T19:19:00.149Z,4.97
2023-03-02T19:21:28.593Z,4.80
2023-03-02T19:23:58.460Z,5.17
2023-03-02T19:26:27.245Z,5.37
2023-03-02T19:28:57.271Z,5.28
2023-03-02T19:31:30.572Z,5.83
2023-03-02T19:34:00.116Z,5.10
2023-03-02T19:36:29.256Z,5.60
2023-03-02T19:38:58.734Z,5.47
2023-03-02T19:41:30.481Z,6.22
2023-03-02T19:43:59.263Z,5.85
2023-03-02T19:46:28.532Z,6.55
2023-03-02T19:48:57.414Z,6.72
2023-03-02T19:51:26.164Z,6.15
2023-03-02T19:53:55.457Z,6.50
2023-03-02T19:56:29.290Z,6.17
2023-03-02T19:58:59.854Z,5.67
2023-03-02T20:01:29.989Z,6.83
2023-03-02T20:04:02.223Z,6.15
2023-03-02T20:06:34.214Z,5.58
2023-03-02T20:09:05.332Z,5.62
2023-03-02T20:11:35.642Z,6.67
2023-03-02T20:14:04.976Z,6.30
2023-03-02T20:16:36.120Z,6.28
2023-03-02T20:19:05.813Z,7.05
2023-03-02T20:21:38.026Z,8.00
2023-03-02T20:24:09.886Z,7.67
2023-03-02T20:26:38.887Z,7.40
2023-03-02T20:29:08.292Z,6.90
2023-03-02T20:31:37.894Z,7.37
2023-03-02T20:34:09.322Z,6.25
2023-03-02T20:36:40.007Z,7.15
2023-03-02T20:39:20.548Z,7.17
2023-03-02T20:41:49.514Z,7.37
2023-03-02T20:44:18.226Z,7.25
2023-03-02T20:46:51.250Z,8.10
2023-03-02T20:49:20.948Z,7.45
2023-03-02T20:51:52.883Z,7.40
2023-03-02T20:54:27.116Z,7.92
2023-03-02T20:56:56.177Z,6.80
2023-03-02T20:59:28.997Z,7.30
2023-03-02T21:01:58.147Z,7.47
2023-03-02T21:04:26.906Z,7.35
2023-03-02T21:06:57.954Z,8.80
2023-03-02T21:09:26.822Z,7.83
2023-03-02T21:11:58.907Z,7.20
2023-03-02T21:14:28.138Z,7.72
2023-03-02T21:16:58.379Z,7.17
2023-03-02T21:19:29.062Z,8.10
2023-03-02T21:21:58.362Z,7.30
2023-03-02T21:24:27.195Z,7.20
2023-03-02T21:26:56.041Z,6.37
2023-03-02T21:29:26.382Z,6.33
2023-03-02T21:31:55.195Z,7.00
2023-03-02T21:34:24.278Z,6.15
2023-03-02T21:36:54.357Z,6.78
2023-03-02T21:39:29.769Z,6.37
2023-03-02T21:42:02.166Z,6.93
2023-03-02T21:44:31.162Z,6.50
2023-03-02T21:47:00.032Z,6.28
2023-03-02T21:49:28.834Z,6.53
2023-03-02T21:51:58.094Z,6.75
2023-03-02T21:54:28.326Z,6.87
2023-03-02T21:56:57.305Z,6.37
2023-03-02T21:59:29.300Z,7.15
2023-03-02T22:01:58.015Z,6.90
2023-03-02T22:04:26.862Z,6.28
2023-03-02T22:06:55.471Z,5.50
2023-03-02T22:09:24.867Z,6.20
2023-03-02T22:11:53.956Z,5.85
2023-03-02T22:14:23.273Z,6.00
2023-03-02T22:16:52.089Z,6.45
2023-03-02T22:19:29.667Z,6.12
2023-03-02T22:22:00.244Z,5.53
2023-03-02T22:24:32.253Z,5.85
2023-03-02T22:27:12.583Z,5.50
2023-03-02T22:29:46.453Z,4.92
2023-03-02T22:32:30.551Z,5.70
2023-03-02T22:35:05.302Z,5.40
2023-03-02T22:37:34.339Z,5.60
2023-03-02T22:40:29.973Z,5.35
2023-03-02T22:43:25.503Z,5.40
2023-03-02T22:46:13.314Z,6.03
2023-03-02T22:48:45.248Z,6.40
2023-03-02T22:51:26.926Z,5.75
2023-03-02T22:53:58.410Z,5.92
2023-03-02T22:56:37.264Z,5.85
2023-03-02T22:59:25.791Z,6.70
2023-03-02T23:01:59.231Z,7.33
2023-03-02T23:04:32.223Z,5.87
2023-03-02T23:07:02.468Z,6.15
2023-03-02T23:09:35.010Z,8.85
2023-03-02T23:12:15.313Z,7.67
2023-03-02T23:14:51.379Z,11.30
2023-03-02T23:17:25.261Z,11.53
2023-03-02T23:19:54.073Z,8.90
2023-03-02T23:22:23.048Z,10.13
2023-03-02T23:24:52.196Z,9.43
2023-03-02T23:27:24.736Z,10.75
2023-03-02T23:29:54.013Z,8.95
2023-03-02T23:32:25.026Z,8.38
2023-03-02T23:34:55.112Z,9.80
2023-03-02T23:37:25.552Z,8.33
2023-03-02T23:39:54.414Z,8.65
2023-03-02T23:42:23.707Z,7.50
2023-03-02T23:44:55.069Z,7.12
2023-03-02T23:47:25.623Z,7.37
2023-03-02T23:49:55.265Z,7.87
2023-03-02T23:52:23.876Z,8.20
2023-03-02T23:54:53.573Z,7.60
2023-03-02T23:57:22.291Z,7.72
2023-03-02T23:59:52.580Z,7.65
